Prudentia — PB4900 — position and weather

sailwx.info

Track history (hours):
 
Tides and Currents Weather Stations Pressure Air Temp Water Temp Dewpoint Dewpoint Depression Visibility Wind Speed Wind Dir Waves Ship Positions

Prudentia

Last reported at 2018-Apr-17 16:17 UTC. Time now 2018-Apr-20 00:43 UTC.
Position N 49°19' E 008°27'.

Length 70 m; draft 1.8 m.

Type: Ship. MMSI: 244660779.

Date/timePositionNaut miles runAvg speedWind from/ knotsBaromVisibWave heightAir tempDewpointWater temp
2018-Apr-17 16:17N 49°19' E 008°27'3 5.5
2018-Apr-17 15:43N 49°22' E 008°30'1 5.6
2018-Apr-17 15:30N 49°23' E 008°30'3 5.5
2018-Apr-17 15:00N 49°26' E 008°30'2 4.9
2018-Apr-17 14:30N 49°27' E 008°27'2 4.5
2018-Apr-17 14:00N 49°29' E 008°27'3 6.2
2018-Apr-17 13:30N 49°32' E 008°26'1 0.1
2018-Apr-17 06:46N 49°32' E 008°27'0 0.0
2018-Apr-17 06:27N 49°32' E 008°27'0 0.0
2018-Apr-17 06:00N 49°32' E 008°27'0 0.0
2018-Apr-17 05:30N 49°32' E 008°27'0 0.0
2018-Apr-17 04:55N 49°32' E 008°27'0 0.0
2018-Apr-17 04:30N 49°32' E 008°27'0 0.0
2018-Apr-16 20:21N 49°32' E 008°27'0 0.0
2018-Apr-16 19:59N 49°32' E 008°27'0 0.0
2018-Apr-16 19:29N 49°32' E 008°27'0 0.0
2018-Apr-16 18:59N 49°32' E 008°27'0 0.0
2018-Apr-16 18:30N 49°32' E 008°27'0 0.0
2018-Apr-16 17:59N 49°32' E 008°27'0 0.0
2018-Apr-16 17:23N 49°32' E 008°27'0 0.0
2018-Apr-16 16:58N 49°32' E 008°27'0 0.0
2018-Apr-16 16:24N 49°32' E 008°27'0 0.0
2018-Apr-16 15:58N 49°32' E 008°27'0 0.0
2018-Apr-16 15:29N 49°32' E 008°27'0 0.0
2018-Apr-16 14:57N 49°32' E 008°27'0 0.0
2018-Apr-16 14:29N 49°32' E 008°27'0 0.0
2018-Apr-16 14:00N 49°32' E 008°27'0 0.0
2018-Apr-16 13:22N 49°32' E 008°27'0 0.0
2018-Apr-16 12:52N 49°32' E 008°27'0 0.0
2018-Apr-16 12:25N 49°32' E 008°27'0 0.0
2018-Apr-16 11:59N 49°32' E 008°27'0 0.0
2018-Apr-16 11:30N 49°32' E 008°27'0 0.0
2018-Apr-16 10:59N 49°32' E 008°27'0 0.0
2018-Apr-16 10:29N 49°32' E 008°27'0 0.0
2018-Apr-16 10:00N 49°32' E 008°27'0 0.0
2018-Apr-16 09:29N 49°32' E 008°27'0 0.0
2018-Apr-16 08:58N 49°32' E 008°27'0 0.0
2018-Apr-16 06:51N 49°32' E 008°27'1 3.8
2018-Apr-16 06:30N 49°33' E 008°25'3 4.7
2018-Apr-16 05:55N 49°35' E 008°25'67 1.8
2018-Apr-14 16:41N 50°28' E 007°21'1 3.8
2018-Apr-14 16:30N 50°29' E 007°21'2 4.5
2018-Apr-14 16:00N 50°31' E 007°18'2 4.1
2018-Apr-14 15:30N 50°32' E 007°17'3 4.1
2018-Apr-14 14:50N 50°35' E 007°15'2 4.5
2018-Apr-14 14:29N 50°36' E 007°13'8 4.2
2018-Apr-14 12:36N 50°43' E 007°09'1 4.6
2018-Apr-14 12:29N 50°43' E 007°08'2 4.2
2018-Apr-14 12:00N 50°45' E 007°06'2 4.3
2018-Apr-14 11:29N 50°46' E 007°04'2 4.0
2018-Apr-14 10:59N 50°48' E 007°02'3 3.7
2018-Apr-14 10:16N 50°50' E 006°59'1 3.7
2018-Apr-14 09:59N 50°51' E 006°60'2 4.2
2018-Apr-14 09:30N 50°52' E 007°02'1 2.6
2018-Apr-14 08:59N 50°54' E 007°02'2 3.8
2018-Apr-14 08:30N 50°54' E 006°59'2 4.5
2018-Apr-14 08:00N 50°56' E 006°58'2 4.6
2018-Apr-14 07:30N 50°58' E 006°60'2 4.4
2018-Apr-14 07:00N 50°60' E 006°58'2 4.2
2018-Apr-14 06:30N 51°02' E 006°58'2 4.4
2018-Apr-14 06:00N 51°03' E 006°55'2 4.1
2018-Apr-14 05:30N 51°04' E 006°52'1 2.8
2018-Apr-14 05:00N 51°06' E 006°52'2 3.4
2018-Apr-14 04:30N 51°07' E 006°52'2 3.3
2018-Apr-14 04:00N 51°09' E 006°51'0 0.0
2018-Apr-14 03:30N 51°09' E 006°51'0 0.0
2018-Apr-14 03:00N 51°09' E 006°51'0 0.0
2018-Apr-14 02:30N 51°09' E 006°51'0 0.0
2018-Apr-14 02:00N 51°09' E 006°51'0 0.0
2018-Apr-14 01:30N 51°09' E 006°51'0 0.0
2018-Apr-14 01:00N 51°09' E 006°51'0 0.0
2018-Apr-14 00:30N 51°09' E 006°51'0 0.0
2018-Apr-14 00:00N 51°09' E 006°51'0 0.0
2018-Apr-13 23:30N 51°09' E 006°51'0 0.0
2018-Apr-13 23:00N 51°09' E 006°51'0 0.0
2018-Apr-13 22:30N 51°09' E 006°51'0 0.0
2018-Apr-13 22:00N 51°09' E 006°51'0 0.0
2018-Apr-13 21:30N 51°09' E 006°51'0 0.0
2018-Apr-13 21:00N 51°09' E 006°51'0 0.0
2018-Apr-13 20:30N 51°09' E 006°51'0 0.0
2018-Apr-13 20:00N 51°09' E 006°51'0 0.0
2018-Apr-13 19:30N 51°09' E 006°51'0 0.0
2018-Apr-13 19:00N 51°09' E 006°51'0 0.8
2018-Apr-13 18:30N 51°09' E 006°51'2 3.1
2018-Apr-13 18:00N 51°09' E 006°49'1 2.5
2018-Apr-13 17:30N 51°10' E 006°48'2 3.5
2018-Apr-13 17:00N 51°11' E 006°46'2 3.2
2018-Apr-13 16:30N 51°12' E 006°44'2 3.7
2018-Apr-13 16:00N 51°14' E 006°44'1 2.5
2018-Apr-13 15:30N 51°14' E 006°46'2 4.1
2018-Apr-13 15:00N 51°15' E 006°44'2 3.4
2018-Apr-13 14:30N 51°17' E 006°43'2 4.5
2018-Apr-13 13:59N 51°19' E 006°44'2 4.5
2018-Apr-13 13:30N 51°20' E 006°42'2 3.7
2018-Apr-13 13:00N 51°22' E 006°39'2 4.2
2018-Apr-13 12:30N 51°22' E 006°43'2 4.5
2018-Apr-13 11:59N 51°24' E 006°45'2 4.6
2018-Apr-13 11:30N 51°26' E 006°43'2 4.0
2018-Apr-13 11:00N 51°28' E 006°43'1 3.0
2018-Apr-13 10:30N 51°30' E 006°42'2 3.4
2018-Apr-13 10:00N 51°31' E 006°43'2 4.6
2018-Apr-13 09:30N 51°32' E 006°40'2 4.2
2018-Apr-13 09:00N 51°35' E 006°40'2 4.6
2018-Apr-13 08:30N 51°34' E 006°37'2 4.3
2018-Apr-13 08:00N 51°36' E 006°36'2 4.4
2018-Apr-13 07:30N 51°38' E 006°36'2 3.7
2018-Apr-13 06:59N 51°40' E 006°34'2 4.6
2018-Apr-13 06:30N 51°40' E 006°30'2 4.5
2018-Apr-13 05:58N 51°42' E 006°28'4 3.8
2018-Apr-13 04:48N 51°45' E 006°24'2 5.2
2018-Apr-13 04:30N 51°45' E 006°21'3 4.8
2018-Apr-13 03:52N 51°48' E 006°19'2 5.1
2018-Apr-13 03:30N 51°49' E 006°16'3 4.9
2018-Apr-13 02:59N 51°50' E 006°12'2 4.7
2018-Apr-13 02:30N 51°51' E 006°09'2 4.7
2018-Apr-13 01:59N 51°51' E 006°05'0 0.1
2018-Apr-13 01:30N 51°51' E 006°05'0 0.0
2018-Apr-13 01:00N 51°51' E 006°05'0 0.0
2018-Apr-13 00:30N 51°51' E 006°05'0 0.0
2018-Apr-13 00:00N 51°51' E 006°05'0 0.0
2018-Apr-12 23:30N 51°51' E 006°05'0 0.0
2018-Apr-12 23:00N 51°51' E 006°05'0 0.0
2018-Apr-12 22:30N 51°51' E 006°05'0 0.0
2018-Apr-12 22:00N 51°51' E 006°05'0 0.0
2018-Apr-12 21:30N 51°51' E 006°05'0 0.0
2018-Apr-12 21:00N 51°51' E 006°05'0 0.0
2018-Apr-12 20:30N 51°51' E 006°05'0 0.0
2018-Apr-12 20:00N 51°51' E 006°05'1 1.1
2018-Apr-12 19:30N 51°52' E 006°05'3 5.7
2018-Apr-12 19:00N 51°53' E 006°01'11 3.1
2018-Apr-12 15:21N 51°54' E 005°42'2 5.4
2018-Apr-12 14:57N 51°54' E 005°39'5 5.4
2018-Apr-12 14:04N 51°53' E 005°31'0 5.5
2018-Apr-12 13:59N 51°53' E 005°30'2 2.5
2018-Apr-12 13:05N 51°54' E 005°27'8 5.1
2018-Apr-12 11:34N 51°59' E 005°17'1 7.5
2018-Apr-12 11:25N 51°59' E 005°15'3 7.8
2018-Apr-12 11:00N 52°01' E 005°10'4 7.4
2018-Apr-12 10:30N 52°03' E 005°06'4 7.4
2018-Apr-12 10:00N 52°07' E 005°05'4 7.9
2018-Apr-12 09:30N 52°10' E 004°60'4 7.8
2018-Apr-12 09:00N 52°13' E 005°00'4 7.6
2018-Apr-12 08:30N 52°17' E 005°01'4 7.2
2018-Apr-12 08:00N 52°21' E 004°60'3 6.7
2018-Apr-12 07:30N 52°23' E 004°55'2 4.5
2018-Apr-12 07:01N 52°24' E 004°52'0 0.0
2018-Apr-12 06:31N 52°24' E 004°52'1 1.0
2018-Apr-12 06:00N 52°24' E 004°52'0 0.0
2018-Apr-12 05:30N 52°24' E 004°52'0 0.0
2018-Apr-12 05:00N 52°24' E 004°52'0 0.0
2018-Apr-12 04:30N 52°24' E 004°52'0 0.0
2018-Apr-12 04:00N 52°24' E 004°52'0 0.0
2018-Apr-12 03:30N 52°24' E 004°52'0 0.0
2018-Apr-12 03:00N 52°24' E 004°52'0 0.0
2018-Apr-12 02:30N 52°24' E 004°52'0 0.0
2018-Apr-12 02:00N 52°24' E 004°52'0 0.0
2018-Apr-12 01:30N 52°24' E 004°52'0 0.0
2018-Apr-12 01:00N 52°24' E 004°52'0 0.0
2018-Apr-12 00:30N 52°24' E 004°52'0 0.0
2018-Apr-12 00:00N 52°24' E 004°52'0 0.0
2018-Apr-11 23:30N 52°24' E 004°52'0 0.0
2018-Apr-11 23:00N 52°24' E 004°52'0 0.0
2018-Apr-11 22:30N 52°24' E 004°52'0 0.0
2018-Apr-11 22:00N 52°24' E 004°52'0 0.0
2018-Apr-11 21:30N 52°24' E 004°52'0 0.0
2018-Apr-11 21:00N 52°24' E 004°52'0 0.0
2018-Apr-11 20:30N 52°24' E 004°52'0 0.0
2018-Apr-11 20:00N 52°24' E 004°52'0 0.0
2018-Apr-11 19:30N 52°24' E 004°52'0 0.0
2018-Apr-11 19:00N 52°24' E 004°52'0 0.0
2018-Apr-11 18:30N 52°24' E 004°52'0 0.0
2018-Apr-11 18:00N 52°24' E 004°52'0 0.0
2018-Apr-11 17:30N 52°24' E 004°52'0 0.0
2018-Apr-11 17:00N 52°24' E 004°52'0 0.0
2018-Apr-11 16:30N 52°24' E 004°52'0 0.0
2018-Apr-11 16:00N 52°24' E 004°52'0 0.0
2018-Apr-11 15:30N 52°24' E 004°52'0 0.0
2018-Apr-11 15:00N 52°24' E 004°52'0 0.0
2018-Apr-11 14:30N 52°24' E 004°52'0 0.0
2018-Apr-11 14:00N 52°24' E 004°52'0 0.0
2018-Apr-11 13:30N 52°24' E 004°52'0 0.0
2018-Apr-11 13:00N 52°24' E 004°52'0 0.0
2018-Apr-11 12:30N 52°24' E 004°52'0 0.0
2018-Apr-11 12:00N 52°24' E 004°52'0 0.0
2018-Apr-11 11:30N 52°24' E 004°52'0 0.0
2018-Apr-11 11:00N 52°24' E 004°52'0 0.0
2018-Apr-11 10:30N 52°24' E 004°52'0 0.0
2018-Apr-11 10:00N 52°24' E 004°52'0 0.0
2018-Apr-11 09:30N 52°24' E 004°52'0 0.1
2018-Apr-11 09:00N 52°24' E 004°52'0 0.8
2018-Apr-11 08:31N 52°24' E 004°52'0 0.0
2018-Apr-11 08:00N 52°24' E 004°52'0 0.9
2018-Apr-11 07:30N 52°24' E 004°52'0 0.0
2018-Apr-11 07:00N 52°24' E 004°52'2 4.4
2018-Apr-11 06:31N 52°23' E 004°55'3 7.0
2018-Apr-11 06:01N 52°21' E 004°60'4 8.9
2018-Apr-11 05:31N 52°16' E 005°01'6 9.4
2018-Apr-11 04:52N 52°10' E 004°60'3 9.0
2018-Apr-11 04:29N 52°08' E 005°03'4 8.9
2018-Apr-11 04:00N 52°04' E 005°06'4 8.9
2018-Apr-11 03:31N 52°00' E 005°11'5 9.3
2018-Apr-11 03:01N 51°59' E 005°17'1 1.6
2018-Apr-11 02:31N 51°58' E 005°19'0 0.0
2018-Apr-11 02:01N 51°58' E 005°19'0 0.0
2018-Apr-11 01:31N 51°58' E 005°19'0 0.0
2018-Apr-11 01:01N 51°58' E 005°19'0 0.0
2018-Apr-11 00:31N 51°58' E 005°19'0 0.0
2018-Apr-11 00:01N 51°58' E 005°19'0 0.0
2018-Apr-10 23:31N 51°58' E 005°19'0 0.0
2018-Apr-10 23:01N 51°58' E 005°19'0 0.0
2018-Apr-10 22:30N 51°58' E 005°19'0 0.0
2018-Apr-10 22:00N 51°58' E 005°19'3 4.8
2018-Apr-10 21:25N 51°57' E 005°23'4 5.1
2018-Apr-10 20:36N 51°54' E 005°27'0 0.4
2018-Apr-10 20:30N 51°54' E 005°27'3 4.5
2018-Apr-10 19:56N 51°54' E 005°32'511.9
2018-Apr-10 19:30N 51°54' E 005°40'  
Track history (hours):
 
Tides and Currents Weather Stations Pressure Air Temp Water Temp Dewpoint Dewpoint Depression Visibility Wind Speed Wind Dir Waves Ship Positions

Prudentia

Last reported at 2018-Apr-17 16:17 UTC. Time now 2018-Apr-20 00:43 UTC.
Position N 49°19' E 008°27'.

Length 70 m; draft 1.8 m.

Type: Ship. MMSI: 244660779.

Date/timePositionNaut miles runAvg speedWind from/ knotsBaromVisibWave heightAir tempDewpointWater temp
2018-Apr-17 16:17N 49°19' E 008°27'3 5.5
2018-Apr-17 15:43N 49°22' E 008°30'1 5.6
2018-Apr-17 15:30N 49°23' E 008°30'3 5.5
2018-Apr-17 15:00N 49°26' E 008°30'2 4.9
2018-Apr-17 14:30N 49°27' E 008°27'2 4.5
2018-Apr-17 14:00N 49°29' E 008°27'3 6.2
2018-Apr-17 13:30N 49°32' E 008°26'1 0.1
2018-Apr-17 06:46N 49°32' E 008°27'0 0.0
2018-Apr-17 06:27N 49°32' E 008°27'0 0.0
2018-Apr-17 06:00N 49°32' E 008°27'0 0.0
2018-Apr-17 05:30N 49°32' E 008°27'0 0.0
2018-Apr-17 04:55N 49°32' E 008°27'0 0.0
2018-Apr-17 04:30N 49°32' E 008°27'0 0.0
2018-Apr-16 20:21N 49°32' E 008°27'0 0.0
2018-Apr-16 19:59N 49°32' E 008°27'0 0.0
2018-Apr-16 19:29N 49°32' E 008°27'0 0.0
2018-Apr-16 18:59N 49°32' E 008°27'0 0.0
2018-Apr-16 18:30N 49°32' E 008°27'0 0.0
2018-Apr-16 17:59N 49°32' E 008°27'0 0.0
2018-Apr-16 17:23N 49°32' E 008°27'0 0.0
2018-Apr-16 16:58N 49°32' E 008°27'0 0.0
2018-Apr-16 16:24N 49°32' E 008°27'0 0.0
2018-Apr-16 15:58N 49°32' E 008°27'0 0.0
2018-Apr-16 15:29N 49°32' E 008°27'0 0.0
2018-Apr-16 14:57N 49°32' E 008°27'0 0.0
2018-Apr-16 14:29N 49°32' E 008°27'0 0.0
2018-Apr-16 14:00N 49°32' E 008°27'0 0.0
2018-Apr-16 13:22N 49°32' E 008°27'0 0.0
2018-Apr-16 12:52N 49°32' E 008°27'0 0.0
2018-Apr-16 12:25N 49°32' E 008°27'0 0.0
2018-Apr-16 11:59N 49°32' E 008°27'0 0.0
2018-Apr-16 11:30N 49°32' E 008°27'0 0.0
2018-Apr-16 10:59N 49°32' E 008°27'0 0.0
2018-Apr-16 10:29N 49°32' E 008°27'0 0.0
2018-Apr-16 10:00N 49°32' E 008°27'0 0.0
2018-Apr-16 09:29N 49°32' E 008°27'0 0.0
2018-Apr-16 08:58N 49°32' E 008°27'0 0.0
2018-Apr-16 06:51N 49°32' E 008°27'1 3.8
2018-Apr-16 06:30N 49°33' E 008°25'3 4.7
2018-Apr-16 05:55N 49°35' E 008°25'67 1.8
2018-Apr-14 16:41N 50°28' E 007°21'1 3.8
2018-Apr-14 16:30N 50°29' E 007°21'2 4.5
2018-Apr-14 16:00N 50°31' E 007°18'2 4.1
2018-Apr-14 15:30N 50°32' E 007°17'3 4.1
2018-Apr-14 14:50N 50°35' E 007°15'2 4.5
2018-Apr-14 14:29N 50°36' E 007°13'8 4.2
2018-Apr-14 12:36N 50°43' E 007°09'1 4.6
2018-Apr-14 12:29N 50°43' E 007°08'2 4.2
2018-Apr-14 12:00N 50°45' E 007°06'2 4.3
2018-Apr-14 11:29N 50°46' E 007°04'2 4.0
2018-Apr-14 10:59N 50°48' E 007°02'3 3.7
2018-Apr-14 10:16N 50°50' E 006°59'1 3.7
2018-Apr-14 09:59N 50°51' E 006°60'2 4.2
2018-Apr-14 09:30N 50°52' E 007°02'1 2.6
2018-Apr-14 08:59N 50°54' E 007°02'2 3.8
2018-Apr-14 08:30N 50°54' E 006°59'2 4.5
2018-Apr-14 08:00N 50°56' E 006°58'2 4.6
2018-Apr-14 07:30N 50°58' E 006°60'2 4.4
2018-Apr-14 07:00N 50°60' E 006°58'2 4.2
2018-Apr-14 06:30N 51°02' E 006°58'2 4.4
2018-Apr-14 06:00N 51°03' E 006°55'2 4.1
2018-Apr-14 05:30N 51°04' E 006°52'1 2.8
2018-Apr-14 05:00N 51°06' E 006°52'2 3.4
2018-Apr-14 04:30N 51°07' E 006°52'2 3.3
2018-Apr-14 04:00N 51°09' E 006°51'0 0.0
2018-Apr-14 03:30N 51°09' E 006°51'0 0.0
2018-Apr-14 03:00N 51°09' E 006°51'0 0.0
2018-Apr-14 02:30N 51°09' E 006°51'0 0.0
2018-Apr-14 02:00N 51°09' E 006°51'0 0.0
2018-Apr-14 01:30N 51°09' E 006°51'0 0.0
2018-Apr-14 01:00N 51°09' E 006°51'0 0.0
2018-Apr-14 00:30N 51°09' E 006°51'0 0.0
2018-Apr-14 00:00N 51°09' E 006°51'0 0.0
2018-Apr-13 23:30N 51°09' E 006°51'0 0.0
2018-Apr-13 23:00N 51°09' E 006°51'0 0.0
2018-Apr-13 22:30N 51°09' E 006°51'0 0.0
2018-Apr-13 22:00N 51°09' E 006°51'0 0.0
2018-Apr-13 21:30N 51°09' E 006°51'0 0.0
2018-Apr-13 21:00N 51°09' E 006°51'0 0.0
2018-Apr-13 20:30N 51°09' E 006°51'0 0.0
2018-Apr-13 20:00N 51°09' E 006°51'0 0.0
2018-Apr-13 19:30N 51°09' E 006°51'0 0.0
2018-Apr-13 19:00N 51°09' E 006°51'0 0.8
2018-Apr-13 18:30N 51°09' E 006°51'2 3.1
2018-Apr-13 18:00N 51°09' E 006°49'1 2.5
2018-Apr-13 17:30N 51°10' E 006°48'2 3.5
2018-Apr-13 17:00N 51°11' E 006°46'2 3.2
2018-Apr-13 16:30N 51°12' E 006°44'2 3.7
2018-Apr-13 16:00N 51°14' E 006°44'1 2.5
2018-Apr-13 15:30N 51°14' E 006°46'2 4.1
2018-Apr-13 15:00N 51°15' E 006°44'2 3.4
2018-Apr-13 14:30N 51°17' E 006°43'2 4.5
2018-Apr-13 13:59N 51°19' E 006°44'2 4.5
2018-Apr-13 13:30N 51°20' E 006°42'2 3.7
2018-Apr-13 13:00N 51°22' E 006°39'2 4.2
2018-Apr-13 12:30N 51°22' E 006°43'2 4.5
2018-Apr-13 11:59N 51°24' E 006°45'2 4.6
2018-Apr-13 11:30N 51°26' E 006°43'2 4.0
2018-Apr-13 11:00N 51°28' E 006°43'1 3.0
2018-Apr-13 10:30N 51°30' E 006°42'2 3.4
2018-Apr-13 10:00N 51°31' E 006°43'2 4.6
2018-Apr-13 09:30N 51°32' E 006°40'2 4.2
2018-Apr-13 09:00N 51°35' E 006°40'2 4.6
2018-Apr-13 08:30N 51°34' E 006°37'2 4.3
2018-Apr-13 08:00N 51°36' E 006°36'2 4.4
2018-Apr-13 07:30N 51°38' E 006°36'2 3.7
2018-Apr-13 06:59N 51°40' E 006°34'2 4.6
2018-Apr-13 06:30N 51°40' E 006°30'2 4.5
2018-Apr-13 05:58N 51°42' E 006°28'4 3.8
2018-Apr-13 04:48N 51°45' E 006°24'2 5.2
2018-Apr-13 04:30N 51°45' E 006°21'3 4.8
2018-Apr-13 03:52N 51°48' E 006°19'2 5.1
2018-Apr-13 03:30N 51°49' E 006°16'3 4.9
2018-Apr-13 02:59N 51°50' E 006°12'2 4.7
2018-Apr-13 02:30N 51°51' E 006°09'2 4.7
2018-Apr-13 01:59N 51°51' E 006°05'0 0.1
2018-Apr-13 01:30N 51°51' E 006°05'0 0.0
2018-Apr-13 01:00N 51°51' E 006°05'0 0.0
2018-Apr-13 00:30N 51°51' E 006°05'0 0.0
2018-Apr-13 00:00N 51°51' E 006°05'0 0.0
2018-Apr-12 23:30N 51°51' E 006°05'0 0.0
2018-Apr-12 23:00N 51°51' E 006°05'0 0.0
2018-Apr-12 22:30N 51°51' E 006°05'0 0.0
2018-Apr-12 22:00N 51°51' E 006°05'0 0.0
2018-Apr-12 21:30N 51°51' E 006°05'0 0.0
2018-Apr-12 21:00N 51°51' E 006°05'0 0.0
2018-Apr-12 20:30N 51°51' E 006°05'0 0.0
2018-Apr-12 20:00N 51°51' E 006°05'1 1.1
2018-Apr-12 19:30N 51°52' E 006°05'3 5.7
2018-Apr-12 19:00N 51°53' E 006°01'11 3.1
2018-Apr-12 15:21N 51°54' E 005°42'2 5.4
2018-Apr-12 14:57N 51°54' E 005°39'5 5.4
2018-Apr-12 14:04N 51°53' E 005°31'0 5.5
2018-Apr-12 13:59N 51°53' E 005°30'2 2.5
2018-Apr-12 13:05N 51°54' E 005°27'8 5.1
2018-Apr-12 11:34N 51°59' E 005°17'1 7.5
2018-Apr-12 11:25N 51°59' E 005°15'3 7.8
2018-Apr-12 11:00N 52°01' E 005°10'4 7.4
2018-Apr-12 10:30N 52°03' E 005°06'4 7.4
2018-Apr-12 10:00N 52°07' E 005°05'4 7.9
2018-Apr-12 09:30N 52°10' E 004°60'4 7.8
2018-Apr-12 09:00N 52°13' E 005°00'4 7.6
2018-Apr-12 08:30N 52°17' E 005°01'4 7.2
2018-Apr-12 08:00N 52°21' E 004°60'3 6.7
2018-Apr-12 07:30N 52°23' E 004°55'2 4.5
2018-Apr-12 07:01N 52°24' E 004°52'0 0.0
2018-Apr-12 06:31N 52°24' E 004°52'1 1.0
2018-Apr-12 06:00N 52°24' E 004°52'0 0.0
2018-Apr-12 05:30N 52°24' E 004°52'0 0.0
2018-Apr-12 05:00N 52°24' E 004°52'0 0.0
2018-Apr-12 04:30N 52°24' E 004°52'0 0.0
2018-Apr-12 04:00N 52°24' E 004°52'0 0.0
2018-Apr-12 03:30N 52°24' E 004°52'0 0.0
2018-Apr-12 03:00N 52°24' E 004°52'0 0.0
2018-Apr-12 02:30N 52°24' E 004°52'0 0.0
2018-Apr-12 02:00N 52°24' E 004°52'0 0.0
2018-Apr-12 01:30N 52°24' E 004°52'0 0.0
2018-Apr-12 01:00N 52°24' E 004°52'0 0.0
2018-Apr-12 00:30N 52°24' E 004°52'0 0.0
2018-Apr-12 00:00N 52°24' E 004°52'0 0.0
2018-Apr-11 23:30N 52°24' E 004°52'0 0.0
2018-Apr-11 23:00N 52°24' E 004°52'0 0.0
2018-Apr-11 22:30N 52°24' E 004°52'0 0.0
2018-Apr-11 22:00N 52°24' E 004°52'0 0.0
2018-Apr-11 21:30N 52°24' E 004°52'0 0.0
2018-Apr-11 21:00N 52°24' E 004°52'0 0.0
2018-Apr-11 20:30N 52°24' E 004°52'0 0.0
2018-Apr-11 20:00N 52°24' E 004°52'0 0.0
2018-Apr-11 19:30N 52°24' E 004°52'0 0.0
2018-Apr-11 19:00N 52°24' E 004°52'0 0.0
2018-Apr-11 18:30N 52°24' E 004°52'0 0.0
2018-Apr-11 18:00N 52°24' E 004°52'0 0.0
2018-Apr-11 17:30N 52°24' E 004°52'0 0.0
2018-Apr-11 17:00N 52°24' E 004°52'0 0.0
2018-Apr-11 16:30N 52°24' E 004°52'0 0.0
2018-Apr-11 16:00N 52°24' E 004°52'0 0.0
2018-Apr-11 15:30N 52°24' E 004°52'0 0.0
2018-Apr-11 15:00N 52°24' E 004°52'0 0.0
2018-Apr-11 14:30N 52°24' E 004°52'0 0.0
2018-Apr-11 14:00N 52°24' E 004°52'0 0.0
2018-Apr-11 13:30N 52°24' E 004°52'0 0.0
2018-Apr-11 13:00N 52°24' E 004°52'0 0.0
2018-Apr-11 12:30N 52°24' E 004°52'0 0.0
2018-Apr-11 12:00N 52°24' E 004°52'0 0.0
2018-Apr-11 11:30N 52°24' E 004°52'0 0.0
2018-Apr-11 11:00N 52°24' E 004°52'0 0.0
2018-Apr-11 10:30N 52°24' E 004°52'0 0.0
2018-Apr-11 10:00N 52°24' E 004°52'0 0.0
2018-Apr-11 09:30N 52°24' E 004°52'0 0.1
2018-Apr-11 09:00N 52°24' E 004°52'0 0.8
2018-Apr-11 08:31N 52°24' E 004°52'0 0.0
2018-Apr-11 08:00N 52°24' E 004°52'0 0.9
2018-Apr-11 07:30N 52°24' E 004°52'0 0.0
2018-Apr-11 07:00N 52°24' E 004°52'2 4.4
2018-Apr-11 06:31N 52°23' E 004°55'3 7.0
2018-Apr-11 06:01N 52°21' E 004°60'4 8.9
2018-Apr-11 05:31N 52°16' E 005°01'6 9.4
2018-Apr-11 04:52N 52°10' E 004°60'3 9.0
2018-Apr-11 04:29N 52°08' E 005°03'4 8.9
2018-Apr-11 04:00N 52°04' E 005°06'4 8.9
2018-Apr-11 03:31N 52°00' E 005°11'5 9.3
2018-Apr-11 03:01N 51°59' E 005°17'1 1.6
2018-Apr-11 02:31N 51°58' E 005°19'0 0.0
2018-Apr-11 02:01N 51°58' E 005°19'0 0.0
2018-Apr-11 01:31N 51°58' E 005°19'0 0.0
2018-Apr-11 01:01N 51°58' E 005°19'0 0.0
2018-Apr-11 00:31N 51°58' E 005°19'0 0.0
2018-Apr-11 00:01N 51°58' E 005°19'0 0.0
2018-Apr-10 23:31N 51°58' E 005°19'0 0.0
2018-Apr-10 23:01N 51°58' E 005°19'0 0.0
2018-Apr-10 22:30N 51°58' E 005°19'0 0.0
2018-Apr-10 22:00N 51°58' E 005°19'3 4.8
2018-Apr-10 21:25N 51°57' E 005°23'4 5.1
2018-Apr-10 20:36N 51°54' E 005°27'0 0.4
2018-Apr-10 20:30N 51°54' E 005°27'3 4.5
2018-Apr-10 19:56N 51°54' E 005°32'511.9
2018-Apr-10 19:30N 51°54' E 005°40'  

Dump ship's entire track history